Time;durP1;ratioP1;P1;durP2;ratioP2;P2;SDS_P1;SDS_P2;PMS_P1;PMS_P2;Temp;Humidity;BMP_temperature;BMP_pressure;BME280_temperature;BME280_humidity;BME280_pressure;Samples;Min_cycle;Max_cycle;Signal;HPM_P1;HPM_P2
2022/04/22 00:01:09;;;;;;;56.30;36.27;;;;;;;8.30;85.99;98377.66;2176449;82;20917;-84
2022/04/22 00:04:10;;;;;;;57.17;37.40;;;;;;;8.29;86.03;98375.48;2175481;82;20917;-83
2022/04/22 00:07:10;;;;;;;59.80;38.43;;;;;;;8.31;86.02;98380.70;2166349;82;20941;-85
2022/04/22 00:10:11;;;;;;;57.73;37.87;;;;;;;8.29;85.99;98388.48;2165814;82;20944;-83
2022/04/22 00:13:11;;;;;;;58.97;38.70;;;;;;;8.29;86.10;98381.98;2165852;82;20933;-84
2022/04/22 00:16:11;;;;;;;55.43;39.23;;;;;;;8.34;86.28;98379.91;2165754;82;20890;-83
2022/04/22 00:19:12;;;;;;;56.73;37.27;;;;;;;8.34;86.20;98372.98;2165865;82;21037;-83
2022/04/22 00:22:12;;;;;;;53.97;35.50;;;;;;;8.36;86.20;98371.27;2165377;82;20976;-83
2022/04/22 00:25:13;;;;;;;52.63;34.80;;;;;;;8.40;86.20;98374.78;2165759;82;20925;-83
2022/04/22 00:28:13;;;;;;;56.80;36.23;;;;;;;8.41;86.12;98367.42;2165783;82;20953;-83
2022/04/22 00:31:13;;;;;;;52.40;35.90;;;;;;;8.41;86.06;98368.73;2165652;82;20974;-82
2022/04/22 00:34:14;;;;;;;50.47;32.60;;;;;;;8.39;85.98;98367.41;2165968;82;20965;-82
2022/04/22 00:37:14;;;;;;;45.60;30.77;;;;;;;8.37;85.96;98366.52;2165501;82;21349;-82
2022/04/22 00:40:14;;;;;;;42.30;30.73;;;;;;;8.37;85.95;98362.61;2165467;82;20925;-83
2022/04/22 00:43:15;;;;;;;46.43;31.67;;;;;;;8.38;86.03;98359.16;2165304;82;20985;-83
2022/04/22 00:46:15;;;;;;;46.60;32.10;;;;;;;8.38;85.88;98356.98;2165511;82;20912;-82
2022/04/22 00:49:16;;;;;;;46.67;33.20;;;;;;;8.35;85.87;98351.32;2165585;82;20893;-82
2022/04/22 00:52:16;;;;;;;48.87;31.97;;;;;;;8.36;86.06;98352.19;2166138;82;20890;-82
2022/04/22 00:55:17;;;;;;;57.10;36.00;;;;;;;8.36;86.06;98356.97;2165543;82;20921;-83
2022/04/22 00:58:17;;;;;;;59.50;36.77;;;;;;;8.38;86.08;98351.78;2165562;82;20972;-83
2022/04/22 01:01:17;;;;;;;59.70;37.47;;;;;;;8.37;86.10;98353.94;2165696;82;20929;-83
2022/04/22 01:10:55;;;;;;;57.50;34.53;;;;;;;8.41;86.27;98340.99;2165502;82;20990;-83
2022/04/22 01:13:56;;;;;;;60.10;37.70;;;;;;;8.40;86.20;98336.64;2165669;82;21115;-84
2022/04/22 01:16:56;;;;;;;52.27;34.43;;;;;;;8.36;86.18;98339.19;2165799;82;20921;-83
2022/04/22 01:19:57;;;;;;;51.37;34.60;;;;;;;8.34;86.33;98335.27;2165467;82;21297;-83
2022/04/22 01:22:58;;;;;;;49.67;35.57;;;;;;;8.35;86.37;98328.34;2165553;82;20910;-83
2022/04/22 01:25:57;;;;;;;53.67;36.73;;;;;;;8.33;86.25;98331.31;2165660;82;20929;-83
2022/04/22 01:28:58;;;;;;;56.53;34.13;;;;;;;8.33;86.36;98330.02;2165745;82;21268;-83
2022/04/22 01:31:59;;;;;;;54.67;36.30;;;;;;;8.35;86.59;98334.84;2165654;82;20958;-83
2022/04/22 01:34:59;;;;;;;49.70;33.43;;;;;;;8.36;86.53;98333.98;2165650;82;20953;-84
2022/04/22 01:37:59;;;;;;;53.90;34.97;;;;;;;8.38;86.55;98331.85;2165352;82;20968;-82
2022/04/22 01:40:59;;;;;;;46.33;30.97;;;;;;;8.37;86.54;98329.23;2165648;82;20941;-83
2022/04/22 01:44:00;;;;;;;53.77;33.87;;;;;;;8.39;86.55;98328.83;2165768;82;20905;-83
2022/04/22 01:47:00;;;;;;;52.80;33.40;;;;;;;8.37;86.51;98322.73;2165812;82;20893;-82
2022/04/22 01:50:01;;;;;;;57.07;36.03;;;;;;;8.39;86.63;98319.72;2165847;82;21280;-82
2022/04/22 01:53:01;;;;;;;61.23;38.20;;;;;;;8.39;86.65;98314.09;2165746;82;21287;-84
2022/04/22 01:56:01;;;;;;;57.10;37.03;;;;;;;8.36;86.54;98311.45;2166256;82;20890;-84
2022/04/22 01:59:02;;;;;;;61.53;38.97;;;;;;;8.33;86.65;98316.63;2166221;82;20945;-83
2022/04/22 02:02:03;;;;;;;62.90;39.07;;;;;;;8.27;86.62;98313.91;2166245;82;21284;-85
2022/04/22 02:05:03;;;;;;;67.13;39.47;;;;;;;8.20;86.93;98314.27;2167963;82;20976;-84
2022/04/22 02:08:03;;;;;;;65.40;40.73;;;;;;;8.15;87.26;98306.83;2175819;81;20991;-85
2022/04/22 02:11:04;;;;;;;64.60;38.87;;;;;;;8.10;87.56;98295.50;2175805;82;20997;-85
2022/04/22 02:14:04;;;;;;;86.10;42.23;;;;;;;8.06;87.71;98291.12;2175924;82;20956;-83
2022/04/22 02:17:04;;;;;;;61.40;37.73;;;;;;;8.04;88.23;98290.66;2175742;82;20920;-82
2022/04/22 02:20:05;;;;;;;68.00;39.77;;;;;;;7.99;88.26;98287.99;2175637;82;21312;-85
2022/04/22 02:23:05;;;;;;;67.80;41.13;;;;;;;7.97;88.77;98289.70;2176099;82;20953;-84
2022/04/22 02:26:06;;;;;;;70.60;39.57;;;;;;;8.02;88.72;98299.73;2175606;82;20956;-84
2022/04/22 02:29:06;;;;;;;64.60;37.33;;;;;;;8.05;88.72;98300.20;2175476;82;20956;-79
2022/04/22 02:32:06;;;;;;;60.30;38.17;;;;;;;8.05;88.75;98300.20;2175591;82;20949;-83
2022/04/22 02:35:07;;;;;;;61.17;38.50;;;;;;;8.05;88.65;98302.80;2175931;82;20945;-86
2022/04/22 02:38:07;;;;;;;59.87;37.87;;;;;;;8.03;88.72;98306.67;2175590;81;21007;-84
2022/04/22 02:47:45;;;;;;;57.17;36.10;;;;;;;8.11;88.82;98312.84;2175947;82;20921;-78
2022/04/22 02:50:46;;;;;;;54.47;34.03;;;;;;;8.14;88.81;98315.48;2175758;82;20929;-84
2022/04/22 02:53:46;;;;;;;56.30;34.87;;;;;;;8.16;88.72;98312.48;2175709;82;20996;-86
2022/04/22 02:56:46;;;;;;;54.03;33.43;;;;;;;8.20;88.71;98318.59;2176218;82;20953;-84
2022/04/22 02:59:48;;;;;;;54.03;33.57;;;;;;;8.21;88.53;98316.01;2175694;82;20996;-85
2022/04/22 03:02:47;;;;;;;47.33;30.77;;;;;;;8.22;88.51;98307.36;2175895;82;20969;-84
2022/04/22 03:05:48;;;;;;;52.03;30.57;;;;;;;8.23;88.41;98308.23;2172527;82;20981;-85
2022/04/22 03:08:48;;;;;;;50.07;31.37;;;;;;;8.23;88.32;98299.13;2166269;82;21391;-86
2022/04/22 03:11:48;;;;;;;55.53;35.00;;;;;;;8.22;88.17;98294.36;2166256;82;20929;-86
2022/04/22 03:14:49;;;;;;;56.00;36.27;;;;;;;8.18;88.33;98294.30;2166295;82;20956;-84
2022/04/22 03:17:49;;;;;;;48.90;31.70;;;;;;;8.14;88.28;98294.69;2166157;82;20983;-83
2022/04/22 03:20:50;;;;;;;47.80;30.20;;;;;;;8.10;88.32;98291.60;2165877;82;20929;-85
2022/04/22 03:23:50;;;;;;;45.67;30.17;;;;;;;8.08;88.36;98286.81;2166475;82;20940;-85
2022/04/22 03:26:51;;;;;;;43.77;27.93;;;;;;;8.06;88.39;98287.22;2166246;82;20905;-85
2022/04/22 03:29:51;;;;;;;37.93;27.00;;;;;;;8.07;88.34;98283.77;2166932;82;20928;-85
2022/04/22 03:32:51;;;;;;;43.83;27.70;;;;;;;8.09;88.23;98282.06;2166458;82;20945;-87
2022/04/22 03:35:52;;;;;;;42.77;28.37;;;;;;;8.08;88.17;98280.73;2166821;82;20905;-83
2022/04/22 03:38:52;;;;;;;38.70;26.47;;;;;;;8.09;88.19;98290.28;2166350;82;20984;-86
2022/04/22 03:41:52;;;;;;;40.83;26.67;;;;;;;8.10;88.34;98294.63;2166072;82;20921;-86
2022/04/22 03:44:53;;;;;;;41.50;27.17;;;;;;;8.11;88.30;98295.08;2165433;82;21330;-81
2022/04/22 03:47:53;;;;;;;41.43;27.30;;;;;;;8.14;88.39;98291.22;2165163;82;20917;-80
2022/04/22 03:50:54;;;;;;;38.83;27.27;;;;;;;8.14;88.20;98295.98;2165028;82;20886;-80
2022/04/22 03:53:54;;;;;;;41.50;26.40;;;;;;;8.18;88.22;98294.30;2164990;82;20917;-82
2022/04/22 04:00:13;;;;;;;44.73;27.83;;;;;;;8.16;87.91;98296.88;2164905;82;20977;-81
2022/04/22 04:03:13;;;;;;;39.10;27.07;;;;;;;8.17;88.05;98301.66;2164602;82;20955;-81
2022/04/22 04:06:14;;;;;;;50.73;32.43;;;;;;;8.18;87.89;98305.57;2164158;81;20960;-80
2022/04/22 04:16:00;;;;;;;39.93;27.37;;;;;;;8.20;87.76;98323.79;2164204;82;20894;-81
2022/04/22 04:25:20;;;;;;;36.97;24.70;;;;;;;8.21;87.49;98316.01;2164726;82;20968;-82
2022/04/22 04:28:23;;;;;;;34.10;23.63;;;;;;;8.20;87.37;98315.56;2164583;82;20965;-81
2022/04/22 04:31:21;;;;;;;35.10;25.87;;;;;;;8.20;87.39;98312.96;2164441;82;20925;-81
2022/04/22 04:34:21;;;;;;;42.40;25.63;;;;;;;8.25;87.34;98319.52;2165157;82;20936;-78
2022/04/22 04:37:25;;;;;;;35.10;25.33;;;;;;;8.24;87.18;98317.34;2165386;82;20945;-81
2022/04/22 04:40:25;;;;;;;32.50;22.70;;;;;;;8.22;87.15;98312.98;2164748;82;21400;-80
2022/04/22 04:43:26;;;;;;;31.63;22.40;;;;;;;8.21;87.06;98314.71;2163574;82;20932;-80
2022/04/22 04:46:26;;;;;;;27.63;20.30;;;;;;;8.22;87.11;98311.69;2163399;82;20918;-78
2022/04/22 04:49:27;;;;;;;27.90;21.13;;;;;;;8.27;87.16;98318.69;2163569;82;21324;-78
2022/04/22 04:52:27;;;;;;;26.27;19.60;;;;;;;8.33;87.05;98314.02;2164183;82;20948;-80
2022/04/22 04:55:27;;;;;;;28.70;20.37;;;;;;;8.36;86.61;98309.28;2163566;82;20893;-79
2022/04/22 04:58:27;;;;;;;27.90;19.80;;;;;;;8.39;86.58;98301.52;2162841;82;20948;-77
2022/04/22 05:01:28;;;;;;;32.27;23.67;;;;;;;8.43;86.35;98300.70;2162927;82;20960;-79
2022/04/22 05:04:28;;;;;;;29.73;22.43;;;;;;;8.47;86.08;98305.08;2163076;82;21009;-82
2022/04/22 05:07:29;;;;;;;25.03;18.63;;;;;;;8.58;86.18;98308.25;2163223;82;21032;-83
2022/04/22 05:10:29;;;;;;;24.77;17.70;;;;;;;8.74;85.71;98302.81;2164067;82;20972;-83
2022/04/22 05:13:29;;;;;;;20.67;16.70;;;;;;;8.82;85.03;98297.26;2163920;82;21324;-84
2022/04/22 05:16:30;;;;;;;20.17;17.00;;;;;;;8.91;84.95;98292.57;2163989;82;20925;-83
2022/04/22 05:19:30;;;;;;;18.53;15.37;;;;;;;9.01;84.56;98290.92;2164810;82;21008;-81
2022/04/22 05:22:31;;;;;;;16.83;14.87;;;;;;;9.09;83.85;98286.66;2164736;82;21281;-81
2022/04/22 05:25:31;;;;;;;18.93;15.93;;;;;;;9.16;83.75;98283.25;2164290;82;20897;-83
2022/04/22 05:28:31;;;;;;;17.67;15.73;;;;;;;9.30;83.44;98284.23;2164185;82;20932;-80
2022/04/22 05:34:51;;;;;;;16.17;14.47;;;;;;;9.52;82.21;98280.05;2163785;82;20956;-83
2022/04/22 05:37:51;;;;;;;20.67;16.93;;;;;;;9.59;81.21;98287.08;2164190;82;20987;-83
2022/04/22 05:40:52;;;;;;;26.27;16.73;;;;;;;9.62;81.23;98299.27;2164001;82;21000;-83
2022/04/22 05:43:53;;;;;;;18.03;15.80;;;;;;;9.66;81.26;98294.52;2163136;82;21682;-81
2022/04/22 05:46:53;;;;;;;19.40;16.37;;;;;;;9.71;80.02;98299.32;2163954;82;20993;-80
2022/04/22 05:49:53;;;;;;;21.53;17.10;;;;;;;9.75;80.38;98299.35;2163930;82;20973;-80
2022/04/22 05:52:53;;;;;;;23.30;18.03;;;;;;;9.77;79.98;98301.97;2165547;82;20929;-81
2022/04/22 05:55:54;;;;;;;22.67;17.27;;;;;;;9.78;79.70;98309.80;2165344;82;21360;-84
2022/04/22 05:58:55;;;;;;;23.50;17.80;;;;;;;9.80;79.21;98301.98;2164322;82;21036;-81
2022/04/22 06:01:55;;;;;;;23.07;17.43;;;;;;;9.76;79.61;98306.31;2164368;82;20946;-83
2022/04/22 06:04:55;;;;;;;20.40;17.47;;;;;;;9.82;79.29;98300.27;2163520;82;20954;-81
2022/04/22 06:11:14;;;;;;;27.10;20.70;;;;;;;9.87;78.80;98303.34;2163969;82;21083;-82
2022/04/22 06:14:15;;;;;;;26.67;19.57;;;;;;;9.88;78.87;98307.69;2163474;82;20984;-82
2022/04/22 06:17:15;;;;;;;26.37;20.17;;;;;;;9.88;78.72;98309.42;2163623;82;20929;-82
2022/04/22 06:20:16;;;;;;;32.63;22.57;;;;;;;9.91;79.13;98308.13;2163700;82;20957;-82
2022/04/22 06:23:16;;;;;;;26.83;20.37;;;;;;;9.94;78.68;98313.37;2164372;82;20936;-82
2022/04/22 06:26:16;;;;;;;32.23;21.97;;;;;;;10.00;78.73;98320.35;2164551;82;20909;-82
2022/04/22 06:29:17;;;;;;;34.10;22.87;;;;;;;10.04;78.74;98316.90;2163503;82;20981;-82
2022/04/22 06:32:17;;;;;;;35.50;21.83;;;;;;;10.20;78.74;98314.84;2163179;82;21356;-83
2022/04/22 06:35:20;;;;;;;32.80;21.80;;;;;;;10.25;78.57;98315.73;2142447;82;20958;-83
2022/04/22 06:38:21;;;;;;;31.67;21.87;;;;;;;10.35;78.14;98320.56;2163879;82;21000;-84
2022/04/22 06:47:58;;;;;;;29.53;19.63;;;;;;;10.37;77.05;98317.52;2163712;82;20889;-81
2022/04/22 06:50:59;;;;;;;30.57;20.10;;;;;;;10.34;76.62;98312.30;2163838;82;21576;-80
2022/04/22 06:53:59;;;;;;;26.57;18.50;;;;;;;10.31;76.78;98317.07;2164129;82;20932;-81
2022/04/22 06:57:00;;;;;;;25.37;19.47;;;;;;;10.43;77.09;98314.54;2164021;82;20968;-82
2022/04/22 06:59:59;;;;;;;26.03;20.03;;;;;;;10.52;76.38;98309.36;2163358;82;21451;-83
2022/04/22 07:03:00;;;;;;;24.47;18.20;;;;;;;10.63;76.84;98307.22;2163855;82;20925;-82
2022/04/22 07:06:00;;;;;;;28.83;20.07;;;;;;;10.69;76.33;98304.19;2164037;82;20897;-82
2022/04/22 07:09:01;;;;;;;26.60;20.60;;;;;;;10.71;76.86;98308.98;2174091;82;21379;-82
2022/04/22 07:12:01;;;;;;;26.60;20.77;;;;;;;10.72;75.28;98319.86;2174273;82;21015;-82
2022/04/22 07:15:05;;;;;;;27.20;20.60;;;;;;;10.56;76.03;98315.45;2174100;82;20921;-82
2022/04/22 07:18:08;;;;;;;27.93;20.57;;;;;;;10.49;76.38;98316.30;2174752;82;20944;-83
2022/04/22 07:21:08;;;;;;;31.00;21.73;;;;;;;10.42;76.40;98315.84;2174659;82;21658;-83
2022/04/22 07:24:09;;;;;;;27.40;20.20;;;;;;;10.33;76.63;98320.55;2174641;82;20956;-82
2022/04/22 07:27:09;;;;;;;32.47;21.80;;;;;;;10.26;76.83;98321.83;2174429;82;20932;-82
2022/04/22 07:30:10;;;;;;;43.90;23.60;;;;;;;10.16;76.85;98320.44;2174070;82;21348;-82
2022/04/22 07:33:10;;;;;;;29.43;21.93;;;;;;;10.17;77.48;98321.31;2173658;82;20964;-80
2022/04/22 07:36:10;;;;;;;30.30;22.40;;;;;;;10.23;76.97;98324.42;2173842;82;20964;-82
2022/04/22 07:39:11;;;;;;;29.53;21.20;;;;;;;10.33;76.78;98320.98;2173470;82;21040;-83
2022/04/22 07:42:11;;;;;;;30.87;22.00;;;;;;;10.47;76.91;98314.13;2173285;82;20964;-81
2022/04/22 07:48:30;;;;;;;32.00;23.50;;;;;;;10.32;76.78;98325.33;2172686;82;20893;-81
2022/04/22 07:51:31;;;;;;;32.27;22.90;;;;;;;10.14;76.79;98332.60;2172327;82;20928;-81
2022/04/22 07:54:31;;;;;;;31.27;22.37;;;;;;;10.04;77.15;98336.45;2172392;82;20936;-82
2022/04/22 07:57:32;;;;;;;36.37;23.23;;;;;;;10.03;77.35;98337.32;2173575;82;20927;-81
2022/04/22 08:00:32;;;;;;;32.80;22.23;;;;;;;9.87;77.27;98337.66;2173135;82;20933;-83
2022/04/22 08:03:32;;;;;;;29.20;20.63;;;;;;;9.76;77.66;98333.67;2173182;82;20936;-81
2022/04/22 08:06:33;;;;;;;35.43;23.10;;;;;;;9.85;78.03;98335.47;2174421;81;21385;-83
2022/04/22 08:09:33;;;;;;;24.80;18.67;;;;;;;9.99;77.75;98328.61;2180315;81;21027;-80
2022/04/22 08:12:39;;;;;;;24.60;17.03;;;;;;;9.94;77.27;98335.53;2180711;81;20909;-83
2022/04/22 08:15:43;;;;;;;33.03;19.53;;;;;;;9.86;77.33;98342.00;2180304;82;20944;-83
2022/04/22 08:18:43;;;;;;;23.63;17.53;;;;;;;9.83;77.61;98345.89;2181165;81;20963;-81
2022/04/22 08:21:44;;;;;;;23.47;17.67;;;;;;;9.95;77.47;98344.22;2180482;82;20924;-81
2022/04/22 08:24:44;;;;;;;21.47;16.30;;;;;;;9.90;77.14;98340.28;2180770;82;20968;-83
2022/04/22 08:27:48;;;;;;;24.67;16.20;;;;;;;9.86;77.57;98341.13;2180666;82;20916;-85
2022/04/22 08:30:50;;;;;;;19.87;14.50;;;;;;;9.81;77.76;98342.83;2180900;82;20930;-84
2022/04/22 08:33:55;;;;;;;16.83;12.60;;;;;;;9.85;77.60;98349.38;2153684;82;21609;-84
2022/04/22 08:36:53;;;;;;;15.90;12.40;;;;;;;9.87;77.36;98358.51;2181273;81;20960;-83
2022/04/22 08:39:55;;;;;;;35.70;13.80;;;;;;;9.90;77.45;98360.70;2154076;82;20983;-84
2022/04/22 08:42:53;;;;;;;18.60;11.97;;;;;;;10.04;77.36;98358.19;2181320;81;20948;-83
2022/04/22 08:45:54;;;;;;;16.13;11.50;;;;;;;10.05;77.13;98361.23;2180714;81;21424;-83
2022/04/22 08:52:13;;;;;;;17.27;9.97;;;;;;;9.88;77.11;98363.73;2181094;82;20952;-84
2022/04/22 08:55:14;;;;;;;12.40;10.63;;;;;;;9.81;77.63;98361.95;2181075;81;20959;-84
2022/04/22 08:58:14;;;;;;;14.03;11.73;;;;;;;9.79;77.58;98354.98;2181290;82;21101;-85
2022/04/22 09:01:14;;;;;;;14.20;11.13;;;;;;;9.83;77.75;98360.66;2181088;81;20892;-84
2022/04/22 09:04:20;;;;;;;12.40;9.83;;;;;;;9.90;77.80;98357.23;2153105;82;20933;-83
2022/04/22 09:07:22;;;;;;;10.53;9.43;;;;;;;9.87;77.45;98359.38;2178219;82;20969;-83
2022/04/22 09:10:20;;;;;;;14.17;10.50;;;;;;;9.75;77.48;98367.55;2172842;82;21391;-83
2022/04/22 09:13:21;;;;;;;16.83;12.30;;;;;;;9.67;77.80;98367.92;2173290;82;20921;-83
2022/04/22 09:16:21;;;;;;;27.83;15.90;;;;;;;9.67;78.15;98371.83;2173410;82;20935;-83
2022/04/22 09:19:22;;;;;;;16.67;10.97;;;;;;;9.65;78.23;98378.77;2173821;82;20992;-84
2022/04/22 09:22:22;;;;;;;13.27;9.70;;;;;;;9.62;78.09;98373.52;2174016;82;20931;-82
2022/04/22 09:25:23;;;;;;;24.57;12.83;;;;;;;9.54;78.21;98366.95;2174145;82;20898;-84
2022/04/22 09:28:23;;;;;;;10.00;6.87;;;;;;;9.43;77.95;98366.83;2174188;82;20968;-82
2022/04/22 09:31:24;;;;;;;18.43;9.03;;;;;;;9.31;78.12;98361.94;2174078;82;20980;-84
2022/04/22 09:34:24;;;;;;;7.50;5.27;;;;;;;9.28;78.08;98361.48;2174548;82;20920;-83
2022/04/22 09:42:39;;;;;;;5.63;4.60;;;;;;;9.18;78.10;98366.16;2173883;82;21024;-83
2022/04/22 09:43:31;;;;;;;5.30;4.77;;;;;;;9.10;78.26;98362.61;2174589;82;20934;-81
2022/04/22 09:46:32;;;;;;;7.13;4.50;;;;;;;9.13;78.29;98363.94;2174392;82;20998;-84
2022/04/22 09:49:32;;;;;;;4.27;3.60;;;;;;;9.12;77.97;98366.09;2174726;82;20923;-82
2022/04/22 09:52:34;;;;;;;3.23;2.93;;;;;;;9.06;77.97;98370.81;2174686;82;21368;-82
2022/04/22 09:55:32;;;;;;;6.77;4.43;;;;;;;9.07;77.98;98365.18;2173783;82;21328;-81
2022/04/22 09:58:33;;;;;;;3.93;3.23;;;;;;;9.11;78.06;98364.35;2174974;82;21005;-82
2022/04/22 10:01:33;;;;;;;4.83;4.33;;;;;;;9.20;77.75;98379.64;2174498;82;20904;-82
2022/04/22 10:04:34;;;;;;;5.43;3.50;;;;;;;9.13;76.98;98374.36;2174144;82;21401;-83
2022/04/22 10:07:34;;;;;;;3.97;3.57;;;;;;;9.15;77.32;98375.24;2173458;82;21000;-83
2022/04/22 10:10:35;;;;;;;4.73;3.60;;;;;;;9.17;77.49;98370.49;2173309;82;20999;-83
2022/04/22 10:13:35;;;;;;;17.47;5.23;;;;;;;9.29;77.13;98365.83;2173672;82;20932;-84
2022/04/22 10:16:35;;;;;;;6.60;3.10;;;;;;;9.44;76.81;98371.61;2173597;82;21024;-84
2022/04/22 10:19:36;;;;;;;53.90;5.87;;;;;;;9.52;76.15;98372.11;2173933;82;20952;-82
2022/04/22 10:22:36;;;;;;;8.60;7.10;;;;;;;9.57;76.33;98363.94;2173952;82;21388;-81
2022/04/22 10:25:39;;;;;;;6.17;5.13;;;;;;;9.72;75.38;98361.01;2173660;82;21408;-84
2022/04/22 10:28:39;;;;;;;9.40;5.10;;;;;;;9.81;75.17;98364.98;2143565;82;21644;-82
2022/04/22 10:31:39;;;;;;;7.30;4.70;;;;;;;9.87;74.90;98364.59;2173298;82;20929;-83
2022/04/22 10:34:40;;;;;;;6.90;5.57;;;;;;;10.02;75.05;98361.22;2173580;82;20897;-81
2022/04/22 10:37:41;;;;;;;5.93;5.33;;;;;;;10.12;74.59;98356.50;2173521;82;21452;-83
2022/04/22 10:40:40;;;;;;;6.83;4.97;;;;;;;10.19;72.93;98360.88;2173279;82;21008;-84
2022/04/22 10:43:41;;;;;;;4.43;3.90;;;;;;;10.24;72.75;98360.07;2173886;82;20932;-81
2022/04/22 10:50:00;;;;;;;3.80;2.87;;;;;;;10.12;73.06;98369.53;2173500;82;20937;-82
2022/04/22 10:53:03;;;;;;;7.50;3.17;;;;;;;10.23;72.78;98366.16;2173763;82;20928;-82
2022/04/22 10:56:03;;;;;;;8.00;2.60;;;;;;;10.36;73.06;98360.13;2173935;82;20893;-82
2022/04/22 10:59:04;;;;;;;2.97;2.37;;;;;;;10.18;70.83;98355.23;2173807;82;20940;-84
2022/04/22 11:02:06;;;;;;;3.97;2.27;;;;;;;10.05;71.94;98361.23;2173582;82;21013;-84
2022/04/22 11:05:05;;;;;;;4.40;2.53;;;;;;;9.88;72.27;98363.73;2173283;82;20928;-77
2022/04/22 11:08:05;;;;;;;3.17;2.93;;;;;;;9.88;72.14;98361.13;2169077;82;20997;-83
2022/04/22 11:11:05;;;;;;;2.77;2.20;;;;;;;10.13;72.33;98357.37;2163262;82;20993;-82
2022/04/22 11:14:06;;;;;;;3.17;2.23;;;;;;;10.33;70.71;98357.08;2163916;82;21281;-82
2022/04/22 11:17:06;;;;;;;3.97;2.40;;;;;;;10.30;70.23;98345.75;2163557;82;20929;-83
2022/04/22 11:20:06;;;;;;;10.67;3.70;;;;;;;10.16;70.42;98354.34;2164081;82;21013;-84
2022/04/22 11:23:09;;;;;;;4.37;2.93;;;;;;;10.29;70.95;98345.31;2163963;82;20952;-83
2022/04/22 11:26:07;;;;;;;6.93;2.77;;;;;;;10.66;71.06;98351.16;2164311;82;20929;-84
2022/04/22 11:29:08;;;;;;;9.00;3.20;;;;;;;10.88;70.04;98366.46;2164104;82;20936;-82
2022/04/22 11:32:08;;;;;;;3.90;2.72;;;;;;;10.80;68.49;98359.91;2163836;82;21344;-85
2022/04/22 11:35:14;;;;;;;4.60;3.03;;;;;;;10.81;68.81;98355.56;2163455;82;20941;-81
2022/04/22 11:38:13;;;;;;;199.85;12.68;;;;;;;10.82;68.42;98352.95;2163644;82;20945;-79
2022/04/22 11:41:14;;;;;;;8.10;2.80;;;;;;;11.04;68.36;98359.54;2142062;82;21328;-82
2022/04/22 11:44:14;;;;;;;6.78;3.30;;;;;;;11.21;68.30;98357.83;2163925;82;20924;-82
2022/04/22 11:47:15;;;;;;;3.23;2.90;;;;;;;11.22;67.86;98360.00;2163621;82;20925;-81
2022/04/22 11:50:16;;;;;;;2.67;2.45;;;;;;;11.09;67.19;98361.73;2164363;82;20962;-82
2022/04/22 11:53:16;;;;;;;3.52;3.22;;;;;;;10.93;67.63;98359.95;2164065;82;20929;-80
2022/04/22 11:56:16;;;;;;;11.53;3.87;;;;;;;10.81;68.45;98357.73;2164473;82;21381;-84
2022/04/22 11:59:16;;;;;;;5.45;3.00;;;;;;;10.77;68.28;98353.38;2164312;82;20932;-82
2022/04/22 12:05:36;;;;;;;21.93;4.08;;;;;;;10.98;67.48;98363.01;2163483;82;20989;-81
2022/04/22 12:08:36;;;;;;;5.00;3.30;;;;;;;10.90;66.81;98374.30;2168019;82;20964;-82
2022/04/22 12:11:36;;;;;;;5.10;3.50;;;;;;;10.59;66.79;98361.14;2173144;82;21026;-83
2022/04/22 12:14:39;;;;;;;15.17;3.97;;;;;;;10.35;67.46;98363.61;2143549;82;20913;-83
2022/04/22 12:17:39;;;;;;;8.60;5.77;;;;;;;10.18;68.20;98361.75;2173151;82;20957;-84
2022/04/22 12:20:40;;;;;;;7.03;4.93;;;;;;;10.08;68.51;98370.81;2171161;82;21343;-81
2022/04/22 12:23:40;;;;;;;8.57;4.47;;;;;;;9.87;69.30;98372.42;2172323;82;20916;-82
2022/04/22 12:26:40;;;;;;;6.20;4.50;;;;;;;9.69;69.92;98366.20;2172220;82;20925;-81
2022/04/22 12:29:41;;;;;;;6.53;5.10;;;;;;;9.48;70.54;98367.73;2171631;82;20985;-83
2022/04/22 12:32:43;;;;;;;17.77;5.97;;;;;;;9.33;71.26;98369.34;2143199;82;20948;-83
2022/04/22 12:35:45;;;;;;;10.17;5.70;;;;;;;9.31;71.58;98368.45;2173207;82;20909;-83
2022/04/22 12:38:44;;;;;;;7.87;4.77;;;;;;;9.33;71.62;98371.52;2172989;82;21012;-83
2022/04/22 12:41:47;;;;;;;5.57;4.70;;;;;;;9.39;71.97;98369.39;2173611;82;21388;-82
2022/04/22 12:52:08;;;;;;;7.10;5.30;;;;;;;9.42;71.66;98373.33;2173814;82;21418;-82
2022/04/22 12:54:26;;;;;;;6.37;5.27;;;;;;;9.38;71.82;98364.61;2174734;82;20963;-82
2022/04/22 12:57:26;;;;;;;10.90;6.00;;;;;;;9.41;71.33;98362.03;2174654;82;20928;-82
2022/04/22 13:00:27;;;;;;;6.83;5.40;;;;;;;9.43;71.29;98359.01;2175368;82;20920;-82
2022/04/22 13:03:27;;;;;;;10.47;5.07;;;;;;;9.38;71.25;98354.62;2174864;82;20905;-83
2022/04/22 13:06:27;;;;;;;8.33;4.97;;;;;;;9.37;71.35;98353.75;2174672;82;21341;-84
2022/04/22 13:09:28;;;;;;;8.83;6.43;;;;;;;9.35;71.37;98355.47;2173809;82;20932;-83
2022/04/22 13:12:28;;;;;;;13.60;7.50;;;;;;;9.36;71.02;98353.73;2174589;82;21024;-82
2022/04/22 13:15:29;;;;;;;11.37;7.97;;;;;;;9.27;69.87;98357.13;2173375;82;21320;-81
2022/04/22 13:18:29;;;;;;;17.33;8.10;;;;;;;9.18;69.44;98353.14;2174415;82;20929;-84
2022/04/22 13:21:29;;;;;;;9.97;8.27;;;;;;;9.12;68.95;98354.38;2173661;82;21000;-84
2022/04/22 13:24:30;;;;;;;7.90;7.20;;;;;;;9.06;68.94;98347.38;2173478;82;20976;-83
2022/04/22 13:27:30;;;;;;;9.23;7.97;;;;;;;9.05;68.82;98340.44;2173132;82;21424;-83
2022/04/22 13:30:31;;;;;;;10.03;7.70;;;;;;;8.98;69.40;98350.77;2173277;82;20981;-83
2022/04/22 13:33:32;;;;;;;13.67;9.10;;;;;;;8.96;69.57;98349.88;2173262;82;21301;-84
2022/04/22 13:36:31;;;;;;;8.53;7.73;;;;;;;8.98;69.84;98350.77;2174208;82;20900;-84
2022/04/22 13:39:32;;;;;;;9.20;8.33;;;;;;;9.13;69.77;98354.40;2174565;82;21022;-84
2022/04/22 13:42:32;;;;;;;10.23;8.63;;;;;;;9.10;68.59;98352.19;2174796;82;21004;-84
2022/04/22 13:52:25;;;;;;;9.17;8.27;;;;;;;9.08;68.94;98348.70;2175715;82;20916;-82
2022/04/22 13:55:27;;;;;;;10.00;8.93;;;;;;;9.24;68.55;98343.65;2175267;82;20972;-82
2022/04/22 13:58:27;;;;;;;9.63;8.63;;;;;;;9.43;67.68;98348.59;2175258;82;21340;-82
2022/04/22 14:01:32;;;;;;;11.67;9.23;;;;;;;9.51;67.45;98346.05;2175903;82;21277;-84
2022/04/22 14:04:34;;;;;;;12.43;9.50;;;;;;;9.70;66.30;98342.75;2144083;82;20937;-84
2022/04/22 14:07:31;;;;;;;13.13;9.73;;;;;;;9.90;66.15;98333.77;2174891;82;21269;-83
2022/04/22 14:10:32;;;;;;;12.07;9.97;;;;;;;10.12;66.15;98336.94;2174835;82;20968;-82
2022/04/22 14:13:33;;;;;;;11.23;9.93;;;;;;;10.32;64.79;98336.20;2174642;82;21000;-83
2022/04/22 14:16:33;;;;;;;10.60;9.50;;;;;;;10.49;63.76;98335.88;2175000;82;20988;-83
2022/04/22 14:19:33;;;;;;;12.57;11.27;;;;;;;10.63;64.07;98329.40;2174856;82;20980;-84
2022/04/22 14:22:35;;;;;;;13.53;10.27;;;;;;;10.60;63.24;98327.66;2175179;82;20944;-84
2022/04/22 14:25:38;;;;;;;12.03;10.57;;;;;;;10.61;63.36;98322.88;2146920;82;20932;-82
2022/04/22 14:28:38;;;;;;;12.43;11.13;;;;;;;10.65;62.82;98325.05;2145844;82;20996;-84
2022/04/22 14:31:38;;;;;;;11.80;10.33;;;;;;;10.66;63.09;98327.67;2175050;82;20964;-82
2022/04/22 14:34:39;;;;;;;11.83;10.10;;;;;;;10.67;62.59;98333.33;2175081;82;20965;-81
2022/04/22 14:37:40;;;;;;;15.73;9.77;;;;;;;10.64;63.29;98325.92;2174386;82;20940;-81
2022/04/22 14:40:40;;;;;;;14.93;9.53;;;;;;;10.78;63.75;98321.61;2175387;82;20964;-83
2022/04/22 14:43:40;;;;;;;12.73;10.63;;;;;;;11.04;63.28;98319.05;2175639;82;21387;-82
2022/04/22 14:46:43;;;;;;;11.43;9.63;;;;;;;11.05;62.08;98317.75;2175770;82;20961;-83
2022/04/22 14:49:44;;;;;;;12.33;11.03;;;;;;;11.08;61.96;98320.80;2176019;82;20968;-83
2022/04/22 14:52:44;;;;;;;10.70;9.47;;;;;;;11.01;61.99;98317.31;2175762;82;20968;-82
2022/04/22 14:55:44;;;;;;;12.80;9.57;;;;;;;10.97;62.01;98322.53;2175089;82;21336;-83
2022/04/22 14:58:45;;;;;;;9.98;8.93;;;;;;;10.88;62.23;98318.16;2175498;82;20952;-82
2022/04/22 15:01:44;;;;;;;21.70;9.60;;;;;;;10.87;62.36;98323.38;2175630;82;20953;-83
2022/04/22 15:04:45;;;;;;;11.00;9.23;;;;;;;10.92;62.16;98328.17;2175850;82;21328;-83
2022/04/22 15:07:48;;;;;;;11.43;8.93;;;;;;;10.89;62.45;98318.59;2175954;82;20968;-84
2022/04/22 15:10:48;;;;;;;10.87;9.63;;;;;;;10.82;62.60;98319.45;2148691;82;20979;-83
2022/04/22 15:13:48;;;;;;;11.00;9.17;;;;;;;10.81;62.69;98313.79;2179303;82;21392;-83